πŸ“Š DonnΓ©es MΓ©tΓ©o - Bordeaux

Total mesures

14,506

TempΓ©rature moyenne

18.9Β°C

Temp. Min/Max

2.9Β° / 42.4Β°

HumiditΓ© moyenne

64.8%

Pression moyenne

1014.8 hPa
enregistrements
ID Date/Heure Temp (Β°C) HumiditΓ© (%) Pression (hPa) Tendance LuminositΓ© (lux) Situation
6506 22/04/2026 21:45 14.8 84.0 1,014.4 β†’ Stable 0 pluvieux-gris
6505 22/04/2026 21:30 15.1 83.0 1,014.4 β†’ Stable 0 pluvieux-gris
6504 22/04/2026 21:15 15.2 83.0 1,014.4 β†’ Stable 0 pluvieux-gris
6503 22/04/2026 20:45 15.1 82.0 1,014.1 β†’ Stable 0 pluvieux-gris
6502 22/04/2026 20:15 15.6 80.0 1,014.1 β†’ Stable 0 pluvieux-gris
6501 22/04/2026 19:45 16.0 79.0 1,013.4 β†’ Stable 0 pluvieux-gris
6500 22/04/2026 19:30 16.3 76.0 1,013.4 β†’ Stable 0 pluvieux-gris (approx.)
6499 22/04/2026 19:15 16.6 76.0 1,013.4 β†’ Stable 0 pluvieux-gris (approx.)
6498 22/04/2026 18:45 17.3 75.0 1,012.3 β†’ Stable 2,688 pluvieux-gris (approx.)
6497 22/04/2026 18:30 18.1 70.0 1,012.3 β†’ Stable 6,480 pluvieux-gris (approx.)
6496 22/04/2026 18:15 18.5 70.0 1,012.3 β†’ Stable 10,920 pluvieux-gris (approx.)
6495 22/04/2026 17:45 19.2 69.0 1,012.1 β†’ Stable 19,536 frais-stable
6494 22/04/2026 17:30 20.0 66.0 1,012.1 β†’ Stable 23,244 frais-stable
6493 22/04/2026 17:15 20.3 66.0 1,012.1 β†’ Stable 28,608 frais-stable
6492 22/04/2026 16:45 20.7 67.0 1,011.4 β†’ Stable 37,872 frais-stable
6491 22/04/2026 16:15 21.0 65.0 1,011.4 β†’ Stable 51,204 frais-stable
6490 22/04/2026 15:45 21.4 64.0 1,010.4 β†’ Stable 61,392 frais-stable
6489 22/04/2026 15:15 22.5 59.0 1,010.4 β†’ Stable 58,332 frais-stable
6488 22/04/2026 14:45 23.0 57.0 1,010.1 β†’ Stable 62,124 frais-stable
6487 22/04/2026 14:15 23.8 54.0 1,010.1 β†’ Stable 86,580 confortablement-chaud (approx.)
6486 22/04/2026 13:45 24.2 53.0 1,009.4 β†’ Stable 92,496 confortablement-chaud
6485 22/04/2026 13:15 25.4 47.0 1,009.4 β†’ Stable 97,032 confortablement-chaud
6484 22/04/2026 12:45 26.3 48.0 1,009.1 β†’ Stable 98,700 confortablement-chaud
6483 22/04/2026 12:15 27.1 40.0 1,009.1 β†’ Stable 100,272 confortablement-chaud
6482 22/04/2026 11:45 26.3 42.0 1,009.2 β†’ Stable 99,996 confortablement-chaud
6481 22/04/2026 11:15 25.1 47.0 1,009.2 β†’ Stable 98,244 confortablement-chaud
6480 22/04/2026 10:45 24.2 49.0 1,009.6 β†’ Stable 95,004 confortablement-chaud
6479 22/04/2026 10:15 22.7 55.0 1,009.6 β†’ Stable 88,800 frais-stable
6478 22/04/2026 09:45 21.9 55.0 1,009.4 β†’ Stable 83,148 frais-stable
6477 22/04/2026 09:15 20.6 55.0 1,009.4 β†’ Stable 73,800 frais-stable
6476 22/04/2026 08:45 19.5 57.0 1,008.6 β†’ Stable 65,736 frais-stable
6475 22/04/2026 08:15 17.8 60.0 1,008.6 β†’ Stable 52,320 frais-stable
6474 22/04/2026 07:45 16.7 61.0 1,008.3 β†’ Stable 44,256 frais-stable
6473 22/04/2026 07:15 16.1 60.0 1,008.3 β†’ Stable 29,904 frais-stable
6472 22/04/2026 06:45 15.4 60.0 1,007.7 β†’ Stable 21,204 frais-stable
6471 22/04/2026 06:15 15.2 55.0 1,007.7 β†’ Stable 11,292 frais-stable
6470 22/04/2026 05:45 15.1 52.0 1,006.5 β†’ Stable 4,812 frais-stable
6469 22/04/2026 05:15 15.2 52.0 1,006.5 β†’ Stable 96 frais-stable
6468 22/04/2026 04:45 15.2 53.0 1,006.1 β†’ Stable 0 frais-stable
6467 22/04/2026 04:15 15.5 51.0 1,006.1 β†’ Stable 0 frais-stable
6466 22/04/2026 03:45 15.8 50.0 1,006.6 β†’ Stable 0 frais-stable
6465 22/04/2026 03:15 15.9 54.0 1,006.6 β†’ Stable 0 frais-stable
6464 22/04/2026 02:45 16.3 54.0 1,004.5 β†’ Stable 0 frais-stable
6463 22/04/2026 02:15 16.0 77.0 1,004.5 β†’ Stable 0 pluvieux-gris
6462 22/04/2026 01:45 16.9 85.0 1,006.2 β†’ Stable 0 pluvieux-gris (approx.)
6461 22/04/2026 01:30 16.3 86.0 1,006.2 β†’ Stable 0 pluvieux-gris (approx.)
6460 22/04/2026 01:15 16.1 86.0 1,006.2 β†’ Stable 0 pluvieux-gris (approx.)
6459 22/04/2026 00:45 16.6 80.0 1,008.6 β†’ Stable 0 pluvieux-gris (approx.)
6458 22/04/2026 00:15 16.5 87.0 1,008.6 β†’ Stable 0 pluvieux-gris (approx.)
6457 21/04/2026 23:45 17.2 79.0 1,009.8 β†’ Stable 0 pluvieux-gris (approx.)
6456 21/04/2026 23:15 18.5 41.0 1,009.8 β†’ Stable 0 frais-stable
6455 21/04/2026 22:45 18.2 42.0 1,006.9 β†’ Stable 0 frais-stable
6454 21/04/2026 22:30 19.0 39.0 1,006.9 β†’ Stable 0 conditions-neutrales-ou-non-definies
6453 21/04/2026 22:15 19.0 39.0 1,006.9 β†’ Stable 0 conditions-neutrales-ou-non-definies
6452 21/04/2026 21:45 19.2 39.0 1,006.2 β†’ Stable 0 conditions-neutrales-ou-non-definies
6451 21/04/2026 21:30 19.5 39.0 1,006.2 β†’ Stable 0 conditions-neutrales-ou-non-definies
6450 21/04/2026 21:15 19.7 39.0 1,006.2 β†’ Stable 0 conditions-neutrales-ou-non-definies
6449 21/04/2026 20:45 20.2 39.0 1,006.0 β†’ Stable 0 conditions-neutrales-ou-non-definies
6448 21/04/2026 20:30 20.9 36.0 1,006.0 β†’ Stable 0 conditions-neutrales-ou-non-definies
6447 21/04/2026 20:15 21.2 36.0 1,006.0 β†’ Stable 0 conditions-neutrales-ou-non-definies
6446 21/04/2026 19:45 21.8 35.0 1,005.3 β†’ Stable 0 conditions-neutrales-ou-non-definies
6445 21/04/2026 19:30 22.4 34.0 1,005.3 β†’ Stable 0 conditions-neutrales-ou-non-definies
6444 21/04/2026 19:15 22.8 33.0 1,005.3 β†’ Stable 0 conditions-neutrales-ou-non-definies
6443 21/04/2026 18:45 23.6 31.0 1,005.1 β†’ Stable 2,316 conditions-neutrales-ou-non-definies
6442 21/04/2026 18:30 24.6 30.0 1,005.1 β†’ Stable 6,024 conditions-neutrales-ou-non-definies
6441 21/04/2026 18:15 24.9 30.0 1,005.1 β†’ Stable 10,464 conditions-neutrales-ou-non-definies
6440 21/04/2026 17:45 25.5 31.0 1,005.2 β†’ Stable 19,164 conditions-neutrales-ou-non-definies
6439 21/04/2026 17:30 26.2 28.0 1,005.2 β†’ Stable 24,720 conditions-neutrales-ou-non-definies
6438 21/04/2026 17:15 26.4 28.0 1,005.2 β†’ Stable 30,000 conditions-neutrales-ou-non-definies
6437 21/04/2026 16:45 26.6 30.0 1,005.3 β†’ Stable 39,444 conditions-neutrales-ou-non-definies
6436 21/04/2026 16:15 26.9 29.0 1,005.3 β†’ Stable 53,052 conditions-neutrales-ou-non-definies
6435 21/04/2026 15:45 27.1 27.0 1,005.5 β†’ Stable 62,772 conditions-neutrales-ou-non-definies
6434 21/04/2026 15:15 27.0 28.0 1,005.5 β†’ Stable 72,684 confortablement-chaud (approx.)
6433 21/04/2026 14:45 26.8 28.0 1,006.2 β†’ Stable 80,556 confortablement-chaud (approx.)
6432 21/04/2026 14:15 26.7 29.0 1,006.2 β†’ Stable 87,876 confortablement-chaud (approx.)
6431 21/04/2026 13:45 26.4 30.0 1,006.9 β†’ Stable 92,964 confortablement-chaud (approx.)
6430 21/04/2026 13:15 25.9 32.0 1,007.1 β†’ Stable 96,672 confortablement-chaud (approx.)
6429 21/04/2026 12:45 25.3 34.0 1,007.6 β†’ Stable 99,072 confortablement-chaud (approx.)
6428 21/04/2026 12:15 24.8 36.0 1,007.6 β†’ Stable 100,092 confortablement-chaud (approx.)
6427 21/04/2026 11:45 23.9 39.0 1,008.1 β†’ Stable 99,720 conditions-neutrales-ou-non-definies
6426 21/04/2026 11:15 23.0 41.0 1,008.1 β†’ Stable 97,872 frais-stable
6425 21/04/2026 10:45 22.0 45.0 1,008.8 β†’ Stable 94,632 frais-stable
6424 21/04/2026 10:15 21.5 44.0 1,008.8 β†’ Stable 89,076 frais-stable
6423 21/04/2026 09:45 20.2 46.0 1,009.4 β†’ Stable 83,052 frais-stable
6422 21/04/2026 09:15 18.9 48.0 1,009.4 β†’ Stable 74,076 frais-stable
6421 21/04/2026 08:45 17.7 50.0 1,009.7 β†’ Stable 65,928 frais-stable
6420 21/04/2026 08:15 16.1 54.0 1,009.7 β†’ Stable 54,264 frais-stable
6419 21/04/2026 07:45 15.0 56.0 1,009.8 β†’ Stable 44,904 frais-stable
6418 21/04/2026 07:15 14.0 60.0 1,009.8 β†’ Stable 30,924 frais-stable
6417 21/04/2026 06:45 13.1 62.0 1,009.7 β†’ Stable 22,032 frais-stable
6416 21/04/2026 06:15 12.4 65.0 1,009.7 β†’ Stable 11,112 frais-stable
6415 21/04/2026 05:45 12.2 66.0 1,009.7 β†’ Stable 4,536 frais-stable
6414 21/04/2026 05:15 12.4 66.0 1,009.7 β†’ Stable 0 frais-stable
6413 21/04/2026 04:45 12.8 63.0 1,009.9 β†’ Stable 0 frais-stable
6412 21/04/2026 04:15 12.8 62.0 1,009.9 β†’ Stable 0 frais-stable
6411 21/04/2026 03:45 13.0 61.0 1,009.9 β†’ Stable 0 frais-stable
6410 21/04/2026 02:45 13.9 58.0 1,009.5 β†’ Stable 0 frais-stable
6409 21/04/2026 02:15 14.4 57.0 1,009.5 β†’ Stable 0 frais-stable
6408 21/04/2026 01:45 14.6 57.0 1,009.4 β†’ Stable 0 frais-stable
6407 21/04/2026 01:30 15.1 56.0 1,009.4 β†’ Stable 0 frais-stable